createdAt,value
2018-08-31T00:01:02.834Z,24.3
2018-08-31T00:02:12.014Z,24.31
2018-08-31T00:03:21.687Z,24.3
2018-08-31T00:04:30.854Z,24.31
2018-08-31T00:05:40.060Z,24.28
2018-08-31T00:06:49.752Z,24.31
2018-08-31T00:07:58.676Z,24.3
2018-08-31T00:09:08.610Z,24.28
2018-08-31T00:10:17.811Z,24.27
2018-08-31T00:11:27.037Z,24.24
2018-08-31T00:12:36.483Z,24.31
2018-08-31T00:13:45.701Z,24.22
2018-08-31T00:14:55.136Z,24.32
2018-08-31T00:16:04.074Z,24.2
2018-08-31T00:17:13.540Z,24.3
2018-08-31T00:18:22.959Z,24.32
2018-08-31T00:19:31.880Z,24.2
2018-08-31T00:20:41.121Z,24.18
2018-08-31T00:21:50.560Z,24.25
2018-08-31T00:23:00.274Z,24.25
2018-08-31T00:24:09.995Z,24.21
2018-08-31T00:25:19.689Z,24.28
2018-08-31T00:26:29.124Z,24.32
2018-08-31T00:27:38.563Z,24.27
2018-08-31T00:28:48.551Z,24.3
2018-08-31T00:29:57.729Z,24.24
2018-08-31T00:31:06.665Z,24.2
2018-08-31T00:32:15.846Z,24.25
2018-08-31T00:33:25.276Z,24.3
2018-08-31T00:34:33.944Z,24.3
2018-08-31T00:35:43.357Z,24.25
2018-08-31T00:36:52.605Z,24.2
2018-08-31T00:38:02.031Z,24.28
2018-08-31T00:39:11.734Z,24.15
2018-08-31T00:40:21.170Z,24.24
2018-08-31T00:41:30.863Z,24.28
2018-08-31T00:42:39.798Z,24.24
2018-08-31T00:43:48.706Z,24.21
2018-08-31T00:44:57.878Z,24.24
2018-08-31T00:46:07.336Z,24.21
2018-08-31T00:47:17.009Z,24.25
2018-08-31T00:48:26.444Z,24.3
2018-08-31T00:49:36.155Z,24.24
2018-08-31T00:50:45.357Z,24.21
2018-08-31T00:51:54.530Z,24.31
2018-08-31T00:53:04.203Z,24.21
2018-08-31T00:54:13.644Z,24.27
2018-08-31T00:55:22.825Z,24.21
2018-08-31T00:56:32.034Z,24.24
2018-08-31T00:57:41.639Z,24.3
2018-08-31T00:58:50.832Z,24.22
2018-08-31T00:59:59.982Z,24.22
2018-08-31T01:01:09.943Z,24.31
2018-08-31T01:02:19.646Z,24.3
2018-08-31T01:03:28.839Z,24.28
2018-08-31T01:04:37.746Z,24.27
2018-08-31T01:05:46.941Z,24.22
2018-08-31T01:06:56.369Z,24.21
2018-08-31T01:08:06.052Z,24.2
2018-08-31T01:09:15.266Z,24.25
2018-08-31T01:10:24.445Z,24.25
2018-08-31T01:11:34.406Z,24.22
2018-08-31T01:12:43.859Z,24.15
2018-08-31T01:13:53.547Z,24.21
2018-08-31T01:15:03.536Z,24.27
2018-08-31T01:16:13.218Z,24.22
2018-08-31T01:17:22.138Z,24.21
2018-08-31T01:18:31.858Z,24.25
2018-08-31T01:19:41.568Z,24.22
2018-08-31T01:20:51.009Z,24.21
2018-08-31T01:22:00.199Z,24.2
2018-08-31T01:23:09.955Z,24.22
2018-08-31T01:24:19.383Z,24.24
2018-08-31T01:25:28.609Z,24.25
2018-08-31T01:26:38.403Z,24.24
2018-08-31T01:27:47.346Z,24.12
2018-08-31T01:28:56.848Z,24.21
2018-08-31T01:30:06.049Z,24.28
2018-08-31T01:31:15.495Z,24.21
2018-08-31T01:32:24.681Z,24.18
2018-08-31T01:33:34.087Z,24.16
2018-08-31T01:34:44.094Z,24.24
2018-08-31T01:35:53.245Z,24.21
2018-08-31T01:37:02.962Z,24.15
2018-08-31T01:38:12.126Z,24.24
2018-08-31T01:39:22.076Z,24.21
2018-08-31T01:40:31.247Z,24.21
2018-08-31T01:41:40.417Z,24.24
2018-08-31T01:42:49.588Z,24.21
2018-08-31T01:43:58.540Z,24.18
2018-08-31T01:45:07.709Z,24.24
2018-08-31T01:46:17.119Z,24.21
2018-08-31T01:47:26.572Z,24.22
2018-08-31T01:48:36.001Z,24.1
2018-08-31T01:49:45.192Z,24.15
2018-08-31T01:50:54.607Z,24.24
2018-08-31T01:52:03.513Z,24.2
2018-08-31T01:53:13.228Z,24.18
2018-08-31T01:54:22.401Z,24.24
2018-08-31T01:55:31.574Z,24.12
2018-08-31T01:56:41.577Z,24.21
2018-08-31T01:57:51.005Z,24.21
2018-08-31T01:59:00.739Z,24.22
2018-08-31T02:00:09.906Z,24.18
2018-08-31T02:01:19.608Z,24.22
2018-08-31T02:02:29.533Z,24.18
2018-08-31T02:03:38.717Z,24.21
2018-08-31T02:04:48.650Z,24.22
2018-08-31T02:05:58.366Z,24.22
2018-08-31T02:07:07.795Z,24.21
2018-08-31T02:08:17.736Z,24.21
2018-08-31T02:09:26.897Z,24.2
2018-08-31T02:10:35.812Z,24.22
2018-08-31T02:11:44.985Z,24.18
2018-08-31T02:12:54.668Z,24.25
2018-08-31T02:14:03.595Z,24.25
2018-08-31T02:15:12.788Z,24.22
2018-08-31T02:16:21.967Z,24.2
2018-08-31T02:17:31.396Z,24.24
2018-08-31T02:18:40.580Z,24.22
2018-08-31T02:19:50.314Z,24.24
2018-08-31T02:20:59.743Z,24.22
2018-08-31T02:22:09.162Z,24.25
2018-08-31T02:23:18.360Z,24.21
2018-08-31T02:24:27.785Z,24.15
2018-08-31T02:25:36.692Z,24.2
2018-08-31T02:26:45.874Z,24.18
2018-08-31T02:27:55.088Z,24.22
2018-08-31T02:29:04.771Z,24.2
2018-08-31T02:30:14.255Z,24.18
2018-08-31T02:31:23.701Z,24.21
2018-08-31T02:32:32.885Z,24.2
2018-08-31T02:33:41.831Z,24.21
2018-08-31T02:34:51.266Z,24.24
2018-08-31T02:36:00.453Z,24.12
2018-08-31T02:37:10.162Z,24.18
2018-08-31T02:38:19.856Z,24.13
2018-08-31T02:39:29.423Z,24.2
2018-08-31T02:40:38.872Z,24.25
2018-08-31T02:41:48.368Z,24.16
2018-08-31T02:42:57.812Z,24.2
2018-08-31T02:44:07.790Z,24.08
2018-08-31T02:45:17.237Z,24.2
2018-08-31T02:46:27.175Z,24.22
2018-08-31T02:47:36.352Z,24.16
2018-08-31T02:48:45.521Z,24.25
2018-08-31T02:49:55.199Z,24.16
2018-08-31T02:51:04.882Z,24.13
2018-08-31T02:52:14.307Z,24.2
2018-08-31T02:53:23.738Z,24.25
2018-08-31T02:54:33.408Z,24.12
2018-08-31T02:55:42.592Z,24.22
2018-08-31T02:56:52.049Z,24.2
2018-08-31T02:58:01.210Z,24.15
2018-08-31T02:59:10.655Z,24.13
2018-08-31T03:00:20.084Z,24.21
2018-08-31T03:01:29.545Z,24.13
2018-08-31T03:02:38.843Z,24.18
2018-08-31T03:03:48.521Z,24.22
2018-08-31T03:04:57.450Z,24.24
2018-08-31T03:06:07.439Z,24.13
2018-08-31T03:07:16.923Z,24.2
2018-08-31T03:08:26.362Z,24.21
2018-08-31T03:09:35.819Z,24.18
2018-08-31T03:10:44.761Z,24.13
2018-08-31T03:11:53.930Z,24.2
2018-08-31T03:13:02.600Z,24.16
2018-08-31T03:14:12.297Z,24.18
2018-08-31T03:15:21.978Z,24.13
2018-08-31T03:16:31.457Z,24.2
2018-08-31T03:17:40.911Z,24.09
2018-08-31T03:18:50.345Z,24.16
2018-08-31T03:19:59.778Z,24.12
2018-08-31T03:21:09.544Z,24.21
2018-08-31T03:22:19.396Z,24.16
2018-08-31T03:23:28.825Z,24.08
2018-08-31T03:24:38.043Z,24.18
2018-08-31T03:25:47.737Z,24.16
2018-08-31T03:26:57.212Z,24.13
2018-08-31T03:28:06.386Z,24.13
2018-08-31T03:29:15.554Z,24.21
2018-08-31T03:30:25.526Z,24.12
2018-08-31T03:31:35.211Z,24.15
2018-08-31T03:32:45.157Z,24.18
2018-08-31T03:33:54.851Z,24.21
2018-08-31T03:35:03.798Z,24.18
2018-08-31T03:36:12.970Z,24.09
2018-08-31T03:37:22.463Z,24.25
2018-08-31T03:38:31.359Z,24.18
2018-08-31T03:39:40.785Z,24.1
2018-08-31T03:40:50.231Z,24.06
2018-08-31T03:41:59.902Z,24.1
2018-08-31T03:43:09.856Z,24.16
2018-08-31T03:44:18.766Z,24.16
2018-08-31T03:45:28.227Z,24.09
2018-08-31T03:46:37.650Z,24.22
2018-08-31T03:47:47.341Z,24.09
2018-08-31T03:48:56.769Z,24.08
2018-08-31T03:50:06.200Z,24.18
2018-08-31T03:51:15.408Z,24.13
2018-08-31T03:52:24.870Z,24.15
2018-08-31T03:53:34.338Z,24.18
2018-08-31T03:54:44.072Z,24.2
2018-08-31T03:55:53.767Z,24.16
2018-08-31T03:57:03.180Z,24.12
2018-08-31T03:58:12.939Z,24.16
2018-08-31T03:59:22.369Z,24.18
2018-08-31T04:00:31.834Z,24.16
2018-08-31T04:01:41.834Z,24.16
2018-08-31T04:02:51.086Z,24.21
2018-08-31T04:04:00.023Z,24.2
2018-08-31T04:05:09.725Z,24.12
2018-08-31T04:06:19.696Z,24.15
2018-08-31T04:07:29.396Z,24.24
2018-08-31T04:08:38.829Z,24.2
2018-08-31T04:09:47.755Z,24.1
2018-08-31T04:10:57.256Z,24.09
2018-08-31T04:12:06.431Z,24.12
2018-08-31T04:13:15.347Z,24.16
2018-08-31T04:14:25.033Z,24.15
2018-08-31T04:15:34.454Z,24.21
2018-08-31T04:16:43.381Z,24.06
2018-08-31T04:17:52.545Z,24.1
2018-08-31T04:19:01.987Z,24.16
2018-08-31T04:20:11.440Z,24.16
2018-08-31T04:21:20.604Z,24.22
2018-08-31T04:22:30.036Z,24.08
2018-08-31T04:23:39.012Z,24.18
2018-08-31T04:24:48.688Z,24.18
2018-08-31T04:25:57.645Z,24.12
2018-08-31T04:27:07.327Z,24.21
2018-08-31T04:28:16.235Z,24.22
2018-08-31T04:29:25.498Z,24.13
2018-08-31T04:30:35.180Z,24.22
2018-08-31T04:31:44.351Z,24.06
2018-08-31T04:32:54.017Z,24.1
2018-08-31T04:34:03.867Z,24.08
2018-08-31T04:35:13.116Z,24.2
2018-08-31T04:36:22.548Z,24.12
2018-08-31T04:37:31.452Z,24.13
2018-08-31T04:38:40.887Z,24.2
2018-08-31T04:39:50.331Z,24.2
2018-08-31T04:40:59.572Z,24.22
2018-08-31T04:42:08.766Z,24.09
2018-08-31T04:43:17.937Z,24.2
2018-08-31T04:44:27.615Z,24.06
2018-08-31T04:45:37.288Z,24.18
2018-08-31T04:46:46.974Z,24.08
2018-08-31T04:47:56.170Z,24.1
2018-08-31T04:49:05.352Z,24.2
2018-08-31T04:50:15.117Z,24.18
2018-08-31T04:51:24.359Z,24.1
2018-08-31T04:52:33.536Z,24.2
2018-08-31T04:53:43.504Z,24.1
2018-08-31T04:54:52.940Z,24.15
2018-08-31T04:56:02.386Z,24.21
2018-08-31T04:57:11.866Z,24.22
2018-08-31T04:58:21.306Z,24.06
2018-08-31T04:59:30.473Z,24.22
2018-08-31T05:00:39.654Z,24.06
2018-08-31T05:01:49.097Z,24.12
2018-08-31T05:02:58.281Z,24.16
2018-08-31T05:04:07.707Z,24.16
2018-08-31T05:05:16.661Z,24.15
2018-08-31T05:06:26.110Z,24.18
2018-08-31T05:07:35.280Z,24.16
2018-08-31T05:08:44.699Z,24.08
2018-08-31T05:09:54.132Z,24.06
2018-08-31T05:11:03.089Z,24.18
2018-08-31T05:12:13.052Z,24.05
2018-08-31T05:13:21.960Z,24.09
2018-08-31T05:14:31.445Z,24.1
2018-08-31T05:15:41.393Z,24.08
2018-08-31T05:16:50.579Z,24.12
2018-08-31T05:18:00.560Z,24.09
2018-08-31T05:19:09.988Z,24.12
2018-08-31T05:20:19.663Z,24.15
2018-08-31T05:21:29.092Z,24.21
2018-08-31T05:22:39.093Z,24.18
2018-08-31T05:23:49.094Z,24.18
2018-08-31T05:24:58.775Z,24.06
2018-08-31T05:26:07.942Z,24.18
2018-08-31T05:27:17.621Z,24.18
2018-08-31T05:28:27.218Z,24.1
2018-08-31T05:29:37.042Z,24.1
2018-08-31T05:30:46.471Z,24.2
2018-08-31T05:31:55.906Z,24.2
2018-08-31T05:33:05.074Z,24.06
2018-08-31T05:34:14.789Z,24.08
2018-08-31T05:35:24.216Z,24.08
2018-08-31T05:36:33.654Z,24.13
2018-08-31T05:37:43.367Z,24.06
2018-08-31T05:38:52.812Z,24.1
2018-08-31T05:40:02.249Z,24.18
2018-08-31T05:41:11.197Z,24.05
2018-08-31T05:42:20.950Z,24.21
2018-08-31T05:43:29.866Z,24.06
2018-08-31T05:44:39.548Z,24.08
2018-08-31T05:45:48.463Z,24.1
2018-08-31T05:46:57.894Z,24.15
2018-08-31T05:48:07.841Z,24.2
2018-08-31T05:49:17.030Z,24.2
2018-08-31T05:50:26.446Z,24.18
2018-08-31T05:51:36.430Z,24.15
2018-08-31T05:52:46.107Z,24.15
2018-08-31T05:53:55.264Z,24.13
2018-08-31T05:55:04.703Z,24.06
2018-08-31T05:56:14.127Z,24.13
2018-08-31T05:57:23.561Z,24.09
2018-08-31T05:58:33.925Z,24.06
2018-08-31T05:59:43.098Z,24.06
2018-08-31T06:00:52.267Z,24.2
2018-08-31T06:02:02.106Z,24.09
2018-08-31T06:03:11.891Z,24.08
2018-08-31T06:04:21.080Z,24.05
2018-08-31T06:05:30.264Z,24.1
2018-08-31T06:06:39.693Z,24.08
2018-08-31T06:07:48.601Z,24.09
2018-08-31T06:08:58.043Z,24.05
2018-08-31T06:10:07.478Z,24.2
2018-08-31T06:11:16.903Z,24.09
2018-08-31T06:12:25.820Z,24.08
2018-08-31T06:13:34.462Z,24.09
2018-08-31T06:14:44.158Z,24.06
2018-08-31T06:15:53.841Z,24.09
2018-08-31T06:17:03.019Z,24.05
2018-08-31T06:18:12.205Z,24.12
2018-08-31T06:19:21.376Z,24.06
2018-08-31T06:20:30.547Z,24.06
2018-08-31T06:21:40.577Z,24.08
2018-08-31T06:22:50.295Z,24.12
2018-08-31T06:23:59.473Z,24.06
2018-08-31T06:25:09.416Z,24.18
2018-08-31T06:26:19.136Z,24.21
2018-08-31T06:27:29.076Z,24.08
2018-08-31T06:28:38.515Z,24.09
2018-08-31T06:29:47.954Z,24.16
2018-08-31T06:30:57.387Z,24.06
2018-08-31T06:32:06.829Z,24.05
2018-08-31T06:33:16.495Z,24.12
2018-08-31T06:34:25.917Z,24.15
2018-08-31T06:35:35.346Z,24.2
2018-08-31T06:36:44.523Z,24.2
2018-08-31T06:37:54.257Z,24.08
2018-08-31T06:39:03.965Z,24.05
2018-08-31T06:40:13.674Z,24.18
2018-08-31T06:41:23.665Z,24.16
2018-08-31T06:42:32.836Z,24.08
2018-08-31T06:43:41.805Z,24.15
2018-08-31T06:44:50.979Z,24.05
2018-08-31T06:46:00.144Z,24.06
2018-08-31T06:47:09.832Z,24.16
2018-08-31T06:48:19.008Z,24.08
2018-08-31T06:49:28.174Z,24.09
2018-08-31T06:50:37.348Z,24.18
2018-08-31T06:51:46.526Z,24.09
2018-08-31T06:52:55.434Z,24.15
2018-08-31T06:54:04.681Z,24.1
2018-08-31T06:55:14.403Z,24.15
2018-08-31T06:56:23.848Z,24.09
2018-08-31T06:57:33.550Z,24.06
2018-08-31T06:58:42.988Z,24.1
2018-08-31T06:59:51.945Z,24.05
2018-08-31T07:01:01.888Z,24.05
2018-08-31T07:02:11.589Z,24.06
2018-08-31T07:03:20.762Z,24.08
2018-08-31T07:04:29.680Z,24.09
2018-08-31T07:05:38.843Z,24.05
2018-08-31T07:06:48.259Z,24.08
2018-08-31T07:07:58.256Z,24.1
2018-08-31T07:09:07.676Z,24.08
2018-08-31T07:10:16.843Z,24.1
2018-08-31T07:11:26.273Z,24.15
2018-08-31T07:12:36.262Z,24.2
2018-08-31T07:13:45.158Z,24.18
2018-08-31T07:14:54.588Z,24.09
2018-08-31T07:16:03.756Z,24.16
2018-08-31T07:17:13.181Z,24.08
2018-08-31T07:18:23.156Z,24.12
2018-08-31T07:19:33.037Z,24.06
2018-08-31T07:20:42.777Z,24.2
2018-08-31T07:21:52.229Z,24.08
2018-08-31T07:23:01.399Z,24.13
2018-08-31T07:24:10.872Z,24.16
2018-08-31T07:25:20.710Z,24.18
2018-08-31T07:26:30.791Z,24.13
2018-08-31T07:27:41.123Z,24.08
2018-08-31T07:28:50.573Z,24.18
2018-08-31T07:30:00.291Z,24.08
2018-08-31T07:31:09.999Z,24.05
2018-08-31T07:32:19.371Z,24.18
2018-08-31T07:33:29.389Z,24.09
2018-08-31T07:34:38.365Z,24.08
2018-08-31T07:35:47.990Z,24.09
2018-08-31T07:36:57.956Z,24.06
2018-08-31T07:38:07.689Z,24.06
2018-08-31T07:39:17.408Z,24.22
2018-08-31T07:40:27.397Z,24.13
2018-08-31T07:41:36.853Z,24.1
2018-08-31T07:42:46.577Z,24.15
2018-08-31T07:43:56.293Z,24.08
2018-08-31T07:45:05.468Z,24.06
2018-08-31T07:46:14.665Z,24.09
2018-08-31T07:47:24.135Z,24.1
2018-08-31T07:48:33.565Z,24.22
2018-08-31T07:49:43.515Z,24.2
2018-08-31T07:50:52.970Z,24.13
2018-08-31T07:52:02.712Z,24.22
2018-08-31T07:53:11.874Z,24.1
2018-08-31T07:54:21.302Z,24.06
2018-08-31T07:55:30.795Z,24.06
2018-08-31T07:56:40.218Z,24.21
2018-08-31T07:57:49.913Z,24.21
2018-08-31T07:58:59.113Z,24.22
2018-08-31T08:00:08.806Z,24.1
2018-08-31T08:01:18.582Z,24.22
2018-08-31T08:02:27.504Z,24.1
2018-08-31T08:03:37.189Z,24.16
2018-08-31T08:04:46.412Z,24.16
2018-08-31T08:05:56.093Z,24.08
2018-08-31T08:07:05.800Z,24.22
2018-08-31T08:08:15.252Z,24.2
2018-08-31T08:09:24.437Z,24.22
2018-08-31T08:10:34.166Z,24.2
2018-08-31T08:11:43.334Z,24.2
2018-08-31T08:12:53.013Z,24.06
2018-08-31T08:14:02.206Z,24.27
2018-08-31T08:15:11.641Z,24.1
2018-08-31T08:16:21.146Z,24.09
2018-08-31T08:17:30.828Z,24.16
2018-08-31T08:18:40.013Z,24.06
2018-08-31T08:19:49.249Z,24.18
2018-08-31T08:20:58.445Z,24.21
2018-08-31T08:22:08.121Z,24.1
2018-08-31T08:23:17.606Z,24.21
2018-08-31T08:24:27.363Z,24.21
2018-08-31T08:25:36.870Z,24.22
2018-08-31T08:26:46.302Z,24.22
2018-08-31T08:27:55.746Z,24.21
2018-08-31T08:29:05.175Z,24.18
2018-08-31T08:30:14.605Z,24.2
2018-08-31T08:31:24.318Z,24.25
2018-08-31T08:32:34.032Z,24.22
2018-08-31T08:33:43.745Z,24.22
2018-08-31T08:34:52.732Z,24.18
2018-08-31T08:36:02.023Z,24.18
2018-08-31T08:37:11.970Z,24.21
2018-08-31T08:38:20.661Z,24.18
2018-08-31T08:39:30.643Z,24.12
2018-08-31T08:40:39.807Z,24.21
2018-08-31T08:41:49.499Z,24.13
2018-08-31T08:42:59.357Z,24.2
2018-08-31T08:44:09.068Z,24.15
2018-08-31T08:45:18.499Z,24.18
2018-08-31T08:46:28.186Z,24.2
2018-08-31T08:47:37.630Z,24.2
2018-08-31T08:48:47.715Z,24.16
2018-08-31T08:49:56.983Z,24.2
2018-08-31T08:51:06.241Z,24.21
2018-08-31T08:52:15.737Z,24.21
2018-08-31T08:53:25.445Z,24.16
2018-08-31T08:54:35.401Z,24.25
2018-08-31T08:55:44.607Z,24.22
2018-08-31T08:56:54.286Z,24.18
2018-08-31T08:58:03.464Z,24.22
2018-08-31T08:59:13.239Z,24.13
2018-08-31T09:00:22.163Z,24.22
2018-08-31T09:01:31.589Z,24.25
2018-08-31T09:02:41.035Z,24.18
2018-08-31T09:03:50.472Z,24.24
2018-08-31T09:04:59.384Z,24.16
2018-08-31T09:06:08.818Z,24.15
2018-08-31T09:07:18.241Z,24.15
2018-08-31T09:08:27.965Z,24.24
2018-08-31T09:09:36.889Z,24.18
2018-08-31T09:10:46.834Z,24.25
2018-08-31T09:11:56.764Z,24.2
2018-08-31T09:13:06.730Z,24.2
2018-08-31T09:14:15.903Z,24.13
2018-08-31T09:15:25.337Z,24.18
2018-08-31T09:16:34.513Z,24.2
2018-08-31T09:17:43.959Z,24.16
2018-08-31T09:18:53.394Z,24.16
2018-08-31T09:20:02.587Z,24.21
2018-08-31T09:21:11.501Z,24.27
2018-08-31T09:22:21.209Z,24.13
2018-08-31T09:23:30.417Z,24.18
2018-08-31T09:24:39.488Z,24.21
2018-08-31T09:25:49.902Z,24.1
2018-08-31T09:26:59.103Z,24.16
2018-08-31T09:28:08.809Z,24.24
2018-08-31T09:29:18.516Z,24.24
2018-08-31T09:30:27.958Z,24.15
2018-08-31T09:31:37.918Z,24.18
2018-08-31T09:32:47.579Z,24.24
2018-08-31T09:33:56.777Z,24.24
2018-08-31T09:35:06.227Z,24.2
2018-08-31T09:36:15.649Z,24.2
2018-08-31T09:37:25.421Z,24.22
2018-08-31T09:38:34.901Z,24.16
2018-08-31T09:39:44.343Z,24.25
2018-08-31T09:40:54.083Z,24.13
2018-08-31T09:42:03.532Z,24.18
2018-08-31T09:43:12.722Z,24.2
2018-08-31T09:44:22.153Z,24.12
2018-08-31T09:45:32.117Z,24.2
2018-08-31T09:46:41.836Z,24.22
2018-08-31T09:47:51.289Z,24.16
2018-08-31T09:49:00.724Z,24.21
2018-08-31T09:50:10.705Z,24.21
2018-08-31T09:51:19.878Z,24.22
2018-08-31T09:52:28.808Z,24.16
2018-08-31T09:53:38.281Z,24.27
2018-08-31T09:54:47.208Z,24.22
2018-08-31T09:55:56.641Z,24.12
2018-08-31T09:57:06.066Z,24.13
2018-08-31T09:58:15.228Z,24.25
2018-08-31T09:59:24.433Z,24.21
2018-08-31T10:00:33.881Z,24.24
2018-08-31T10:01:43.062Z,24.24
2018-08-31T10:02:52.243Z,24.21
2018-08-31T10:04:01.999Z,24.16
2018-08-31T10:05:11.181Z,24.18
2018-08-31T10:06:20.889Z,24.2
2018-08-31T10:07:30.611Z,24.25
2018-08-31T10:08:39.812Z,24.2
2018-08-31T10:09:48.991Z,24.21
2018-08-31T10:10:58.721Z,24.16
2018-08-31T10:12:07.964Z,24.22
2018-08-31T10:13:17.704Z,24.18
2018-08-31T10:14:27.225Z,24.21
2018-08-31T10:15:36.666Z,24.21
2018-08-31T10:16:45.853Z,24.16
2018-08-31T10:17:55.613Z,24.24
2018-08-31T10:19:05.324Z,24.21
2018-08-31T10:20:15.045Z,24.2
2018-08-31T10:21:23.953Z,24.25
2018-08-31T10:22:33.638Z,24.16
2018-08-31T10:23:42.582Z,24.2
2018-08-31T10:24:52.029Z,24.16
2018-08-31T10:26:01.485Z,24.22
2018-08-31T10:27:10.703Z,24.21
2018-08-31T10:28:19.878Z,24.22
2018-08-31T10:29:28.803Z,24.2
2018-08-31T10:30:38.235Z,24.21
2018-08-31T10:31:48.304Z,24.16
2018-08-31T10:32:57.486Z,24.18
2018-08-31T10:34:06.922Z,24.22
2018-08-31T10:35:15.585Z,24.24
2018-08-31T10:36:24.754Z,24.2
2018-08-31T10:37:34.468Z,24.2
2018-08-31T10:38:43.719Z,24.18
2018-08-31T10:39:52.874Z,24.12
2018-08-31T10:41:02.040Z,24.16
2018-08-31T10:42:11.487Z,24.22
2018-08-31T10:43:20.646Z,24.2
2018-08-31T10:44:29.816Z,24.21
2018-08-31T10:45:38.535Z,24.24
2018-08-31T10:46:48.468Z,24.1
2018-08-31T10:47:57.922Z,24.22
2018-08-31T10:49:07.347Z,24.16
2018-08-31T10:50:16.535Z,24.22
2018-08-31T10:51:25.945Z,24.2
2018-08-31T10:52:35.189Z,24.2
2018-08-31T10:53:44.124Z,24.22
2018-08-31T10:54:53.318Z,24.13
2018-08-31T10:56:02.993Z,24.22
2018-08-31T10:57:12.174Z,24.16
2018-08-31T10:58:21.666Z,24.24
2018-08-31T10:59:30.834Z,24.27
2018-08-31T11:00:40.585Z,24.27
2018-08-31T11:01:50.009Z,24.21
2018-08-31T11:02:59.979Z,24.25
2018-08-31T11:04:09.711Z,24.15
2018-08-31T11:05:19.643Z,24.24
2018-08-31T11:06:28.557Z,24.2
2018-08-31T11:07:37.743Z,24.22
2018-08-31T11:08:47.437Z,24.22
2018-08-31T11:09:56.880Z,24.27
2018-08-31T11:11:06.569Z,24.16
2018-08-31T11:12:15.753Z,24.28
2018-08-31T11:13:24.695Z,24.24
2018-08-31T11:14:34.151Z,24.2
2018-08-31T11:15:43.619Z,24.22
2018-08-31T11:16:53.333Z,24.22
2018-08-31T11:18:02.527Z,24.24
2018-08-31T11:19:11.974Z,24.25
2018-08-31T11:20:20.886Z,24.25
2018-08-31T11:21:30.394Z,24.24
2018-08-31T11:22:40.082Z,24.25
2018-08-31T11:23:48.996Z,24.22
2018-08-31T11:24:58.424Z,24.22
2018-08-31T11:26:08.187Z,24.31
2018-08-31T11:27:17.874Z,24.27
2018-08-31T11:28:27.920Z,24.25
2018-08-31T11:29:37.345Z,24.28
2018-08-31T11:30:46.518Z,24.1
2018-08-31T11:31:55.955Z,24.13
2018-08-31T11:33:05.397Z,24.24
2018-08-31T11:34:15.095Z,24.3
2018-08-31T11:35:24.807Z,24.21
2018-08-31T11:36:34.301Z,24.22
2018-08-31T11:37:43.760Z,24.2
2018-08-31T11:38:53.211Z,24.21
2018-08-31T11:40:02.387Z,24.21
2018-08-31T11:41:11.841Z,24.18
2018-08-31T11:42:21.528Z,24.21
2018-08-31T11:43:31.591Z,24.25
2018-08-31T11:44:41.185Z,24.12
2018-08-31T11:45:50.654Z,24.22
2018-08-31T11:47:00.338Z,24.25
2018-08-31T11:48:09.797Z,24.27
2018-08-31T11:49:18.976Z,24.3
2018-08-31T11:50:28.154Z,24.31
2018-08-31T11:51:37.834Z,24.18
2018-08-31T11:52:47.829Z,24.27
2018-08-31T11:53:57.244Z,24.2
2018-08-31T11:55:07.273Z,24.18
2018-08-31T11:56:17.059Z,24.21
2018-08-31T11:57:26.504Z,24.3
2018-08-31T11:58:35.941Z,24.3
2018-08-31T11:59:45.379Z,24.3
2018-08-31T12:00:55.425Z,24.21
2018-08-31T12:02:05.163Z,24.28
2018-08-31T12:03:15.051Z,24.31
2018-08-31T12:04:24.224Z,24.3
2018-08-31T12:05:33.151Z,24.31
2018-08-31T12:06:42.310Z,24.15
2018-08-31T12:07:52.516Z,24.1
2018-08-31T12:09:02.606Z,24.27
2018-08-31T12:10:12.297Z,24.25
2018-08-31T12:11:21.458Z,24.31
2018-08-31T12:12:31.400Z,24.27
2018-08-31T12:13:41.104Z,24.12
2018-08-31T12:14:51.053Z,24.24
2018-08-31T12:16:00.276Z,24.28
2018-08-31T12:17:09.442Z,24.24
2018-08-31T12:18:18.366Z,24.32
2018-08-31T12:19:27.992Z,24.34
2018-08-31T12:20:37.433Z,24.21
2018-08-31T12:21:46.350Z,24.31
2018-08-31T12:22:56.316Z,24.32
2018-08-31T12:24:05.489Z,24.24
2018-08-31T12:25:14.925Z,24.27
2018-08-31T12:26:23.581Z,24.27
2018-08-31T12:27:33.006Z,24.1
2018-08-31T12:28:42.185Z,24.22
2018-08-31T12:29:51.870Z,24.28
2018-08-31T12:31:00.803Z,24.32
2018-08-31T12:32:09.730Z,24.3
2018-08-31T12:33:19.155Z,24.1
2018-08-31T12:34:28.353Z,24.25
2018-08-31T12:35:37.542Z,24.22
2018-08-31T12:36:46.712Z,24.3
2018-08-31T12:37:56.224Z,24.27
2018-08-31T12:39:05.411Z,24.31
2018-08-31T12:40:14.597Z,24.24
2018-08-31T12:41:24.022Z,24.3
2018-08-31T12:42:33.456Z,24.3
2018-08-31T12:43:43.274Z,24.27
2018-08-31T12:44:53.209Z,24.31
2018-08-31T12:46:02.895Z,24.3
2018-08-31T12:47:12.118Z,24.28
2018-08-31T12:48:21.798Z,24.2
2018-08-31T12:49:31.241Z,24.3
2018-08-31T12:50:40.226Z,24.1
2018-08-31T12:51:49.435Z,24.24
2018-08-31T12:52:58.870Z,24.22
2018-08-31T12:54:08.294Z,24.31
2018-08-31T12:55:17.731Z,24.08
2018-08-31T12:56:27.413Z,24.25
2018-08-31T12:57:36.852Z,24.1
2018-08-31T12:58:46.529Z,24.25
2018-08-31T12:59:55.968Z,24.12
2018-08-31T13:01:05.740Z,24.27
2018-08-31T13:02:15.700Z,24.25
2018-08-31T13:03:25.156Z,24.3
2018-08-31T13:04:34.845Z,24.32
2018-08-31T13:05:44.527Z,24.28
2018-08-31T13:06:54.132Z,24.28
2018-08-31T13:08:03.692Z,24.34
2018-08-31T13:09:13.637Z,24.35
2018-08-31T13:10:22.899Z,24.31
2018-08-31T13:11:32.345Z,24.34
2018-08-31T13:12:42.058Z,24.3
2018-08-31T13:13:51.238Z,24.39
2018-08-31T13:15:00.432Z,24.28
2018-08-31T13:16:09.346Z,24.28
2018-08-31T13:17:18.768Z,24.35
2018-08-31T13:18:28.456Z,24.37
2018-08-31T13:19:38.147Z,24.32
2018-08-31T13:20:47.597Z,24.3
2018-08-31T13:21:57.061Z,24.39
2018-08-31T13:23:06.481Z,24.35
2018-08-31T13:24:15.667Z,24.32
2018-08-31T13:25:25.292Z,24.37
2018-08-31T13:26:34.977Z,24.32
2018-08-31T13:27:44.418Z,24.4
2018-08-31T13:28:53.625Z,24.43
2018-08-31T13:30:02.828Z,24.39
2018-08-31T13:31:12.791Z,24.42
2018-08-31T13:32:23.220Z,24.3
2018-08-31T13:33:32.665Z,24.32
2018-08-31T13:34:42.135Z,24.42
2018-08-31T13:35:51.664Z,24.34
2018-08-31T13:37:01.352Z,24.28
2018-08-31T13:38:10.603Z,24.31
2018-08-31T13:39:20.184Z,24.4
2018-08-31T13:40:29.866Z,24.32
2018-08-31T13:41:39.312Z,24.39
2018-08-31T13:42:48.233Z,24.43
2018-08-31T13:43:57.496Z,24.35
2018-08-31T13:45:07.225Z,24.4
2018-08-31T13:46:16.933Z,24.55
2018-08-31T13:47:26.375Z,24.5
2018-08-31T13:48:35.786Z,24.45
2018-08-31T13:49:44.956Z,24.42
2018-08-31T13:50:54.378Z,24.46
2018-08-31T13:52:03.801Z,24.45
2018-08-31T13:53:13.533Z,24.39
2018-08-31T13:54:22.964Z,24.46
2018-08-31T13:55:32.390Z,24.46
2018-08-31T13:56:41.840Z,24.46
2018-08-31T13:57:50.770Z,24.45
2018-08-31T13:59:00.490Z,24.5
2018-08-31T14:00:09.930Z,24.5
2018-08-31T14:01:19.617Z,24.47
2018-08-31T14:02:29.056Z,24.47
2018-08-31T14:03:38.624Z,24.47
2018-08-31T14:04:48.173Z,24.46
2018-08-31T14:05:57.094Z,24.5
2018-08-31T14:07:06.544Z,24.52
2018-08-31T14:08:15.991Z,24.49
2018-08-31T14:09:25.943Z,24.52
2018-08-31T14:10:36.059Z,24.52
2018-08-31T14:11:45.236Z,24.55
2018-08-31T14:12:55.396Z,24.53
2018-08-31T14:14:04.687Z,24.57
2018-08-31T14:15:14.152Z,24.55
2018-08-31T14:16:23.327Z,24.53
2018-08-31T14:17:32.760Z,24.45
2018-08-31T14:18:41.683Z,24.5
2018-08-31T14:19:50.348Z,24.52
2018-08-31T14:20:59.557Z,24.55
2018-08-31T14:22:08.478Z,24.53
2018-08-31T14:23:17.901Z,24.53
2018-08-31T14:24:27.066Z,24.53
2018-08-31T14:25:36.494Z,24.57
2018-08-31T14:26:45.958Z,24.5
2018-08-31T14:27:55.146Z,24.49
2018-08-31T14:29:04.823Z,24.53
2018-08-31T14:30:14.251Z,24.46
2018-08-31T14:31:23.743Z,24.53
2018-08-31T14:32:33.210Z,24.53
2018-08-31T14:33:42.647Z,24.5
2018-08-31T14:34:52.332Z,24.52
2018-08-31T14:36:01.785Z,24.47
2018-08-31T14:37:11.204Z,24.47
2018-08-31T14:38:20.426Z,24.47
2018-08-31T14:39:29.857Z,24.53
2018-08-31T14:40:39.567Z,24.43
2018-08-31T14:41:48.996Z,24.46
2018-08-31T14:42:58.425Z,24.45
2018-08-31T14:44:07.764Z,24.45
2018-08-31T14:45:16.790Z,24.47
2018-08-31T14:46:26.020Z,24.46
2018-08-31T14:47:35.442Z,24.49
2018-08-31T14:48:45.147Z,24.46
2018-08-31T14:49:54.497Z,24.46
2018-08-31T14:51:04.489Z,24.5
2018-08-31T14:52:13.664Z,24.4
2018-08-31T14:53:22.580Z,24.45
2018-08-31T14:54:31.753Z,24.46
2018-08-31T14:55:40.923Z,24.4
2018-08-31T14:56:49.834Z,24.42
2018-08-31T14:57:58.744Z,24.45
2018-08-31T14:59:07.671Z,24.42
2018-08-31T15:00:17.106Z,24.42